Wetterdaten: Woche 18.06.18 - 24.06.18 (KW25)
Datum Zeit Temp. A. Feuchte A. Luftdruck Regen Wind Richtung Taupunkt Windchill Windben
18.06.2018 00:00 21,9 C 60 % 1013,8 hPa 0,0 l/m 10,4 km/h N 13,9 C 20,7 C 26,5 km/h
18.06.2018 01:00 21,5 C 62 % 1014,0 hPa 0,0 l/m 8,8 km/h N 13,9 C 20,7 C 25,7 km/h
18.06.2018 02:00 21,2 C 62 % 1013,9 hPa 0,0 l/m 9,7 km/h N 13,6 C 20,1 C 24,6 km/h
18.06.2018 03:00 20,9 C 63 % 1013,9 hPa 0,0 l/m 11,4 km/h N 13,6 C 19,3 C 28,2 km/h
18.06.2018 04:00 20,6 C 65 % 1014,2 hPa 0,0 l/m 11,1 km/h N 13,8 C 18,9 C 25,8 km/h
18.06.2018 05:00 20,1 C 67 % 1014,8 hPa 0,0 l/m 11,3 km/h N 13,8 C 18,4 C 28,2 km/h
18.06.2018 06:00 19,9 C 69 % 1015,3 hPa 0,0 l/m 11,0 km/h N 13,9 C 18,3 C 26,5 km/h
18.06.2018 07:00 20,2 C 68 % 1015,8 hPa 0,0 l/m 12,0 km/h N 14,2 C 18,3 C 32,2 km/h
18.06.2018 08:00 20,4 C 67 % 1016,4 hPa 0,0 l/m 13,7 km/h N 14,0 C 18,0 C 33,8 km/h
18.06.2018 09:00 21,0 C 66 % 1016,9 hPa 0,0 l/m 11,0 km/h N 14,4 C 19,5 C 31,8 km/h
18.06.2018 10:00 22,4 C 61 % 1016,9 hPa 0,0 l/m 12,1 km/h N 14,5 C 20,8 C 31,4 km/h
18.06.2018 11:00 24,0 C 55 % 1016,8 hPa 0,0 l/m 12,5 km/h N 14,2 C 22,5 C 35,0 km/h
18.06.2018 12:00 25,4 C 48 % 1017,0 hPa 0,0 l/m 11,0 km/h N 13,4 C 24,4 C 30,6 km/h
18.06.2018 13:00 26,0 C 46 % 1016,7 hPa 0,0 l/m 11,2 km/h N 13,3 C 25,1 C 31,8 km/h
18.06.2018 14:00 26,5 C 43 % 1016,5 hPa 0,0 l/m 10,1 km/h N 13,0 C 25,8 C 29,4 km/h
18.06.2018 15:00 26,9 C 41 % 1016,3 hPa 0,0 l/m 9,1 km/h N 12,5 C 26,4 C 26,1 km/h
18.06.2018 16:00 26,8 C 40 % 1016,2 hPa 0,0 l/m 8,7 km/h N 12,1 C 26,4 C 25,7 km/h
18.06.2018 17:00 26,5 C 46 % 1016,0 hPa 0,0 l/m 9,0 km/h N 13,7 C 26,0 C 24,9 km/h
18.06.2018 18:00 26,2 C 45 % 1016,2 hPa 0,0 l/m 8,1 km/h N 13,4 C 25,9 C 25,3 km/h
18.06.2018 19:00 25,1 C 49 % 1016,6 hPa 0,0 l/m 7,4 km/h N 13,5 C 24,9 C 20,9 km/h
18.06.2018 20:00 23,8 C 54 % 1017,3 hPa 0,0 l/m 8,2 km/h N 13,8 C 23,3 C 24,5 km/h
18.06.2018 21:00 22,8 C 57 % 1018,0 hPa 0,0 l/m 7,4 km/h N 13,6 C 22,4 C 21,3 km/h
18.06.2018 22:00 22,3 C 57 % 1018,8 hPa 0,0 l/m 5,7 km/h N 13,3 C 22,2 C 16,9 km/h
18.06.2018 23:00 21,7 C 57 % 1019,1 hPa 0,0 l/m 4,7 km/h N 12,9 C 21,7 C 16,9 km/h
19.06.2018 00:00 21,1 C 59 % 1019,3 hPa 0,0 l/m 3,5 km/h N 12,7 C 21,1 C 15,3 km/h
19.06.2018 01:00 20,4 C 61 % 1019,4 hPa 0,0 l/m 2,8 km/h N 12,6 C 20,4 C 14,1 km/h
19.06.2018 02:00 20,0 C 63 % 1019,3 hPa 0,0 l/m 3,3 km/h N 12,6 C 20,0 C 12,5 km/h
19.06.2018 03:00 19,4 C 65 % 1019,5 hPa 0,0 l/m 2,5 km/h N 12,7 C 19,4 C 12,1 km/h
19.06.2018 04:00 18,9 C 67 % 1019,5 hPa 0,0 l/m 2,4 km/h N 12,7 C 18,9 C 12,1 km/h
19.06.2018 05:00 18,9 C 67 % 1019,8 hPa 0,0 l/m 3,4 km/h N 12,5 C 18,9 C 12,9 km/h
19.06.2018 06:00 19,6 C 65 % 1020,2 hPa 0,0 l/m 4,4 km/h N 12,8 C 19,6 C 18,1 km/h
19.06.2018 07:00 20,6 C 64 % 1020,6 hPa 0,0 l/m 5,3 km/h N 13,4 C 20,5 C 18,9 km/h
19.06.2018 08:00 21,8 C 59 % 1020,9 hPa 0,0 l/m 6,9 km/h N 13,4 C 21,5 C 20,1 km/h
19.06.2018 09:00 23,2 C 57 % 1021,0 hPa 0,0 l/m 6,8 km/h N 14,0 C 23,1 C 19,3 km/h
19.06.2018 10:00 24,0 C 55 % 1021,0 hPa 0,0 l/m 6,7 km/h N 14,4 C 23,9 C 20,9 km/h
19.06.2018 11:00 24,6 C 54 % 1020,8 hPa 0,0 l/m 6,4 km/h N 14,7 C 24,5 C 19,7 km/h
19.06.2018 12:00 25,0 C 52 % 1020,7 hPa 0,0 l/m 6,8 km/h N 14,4 C 24,9 C 19,7 km/h
19.06.2018 13:00 25,6 C 52 % 1020,5 hPa 0,0 l/m 7,0 km/h N 15,1 C 25,4 C 19,7 km/h
19.06.2018 14:00 25,6 C 51 % 1020,1 hPa 0,0 l/m 7,1 km/h N 14,7 C 25,4 C 19,3 km/h
19.06.2018 15:00 26,1 C 50 % 1019,8 hPa 0,0 l/m 9,7 km/h N 14,7 C 25,5 C 24,5 km/h
19.06.2018 16:00 26,5 C 47 % 1019,5 hPa 0,0 l/m 7,7 km/h N 14,2 C 26,3 C 21,7 km/h
19.06.2018 17:00 26,2 C 46 % 1019,3 hPa 0,0 l/m 6,6 km/h N 13,6 C 26,1 C 19,3 km/h
19.06.2018 18:00 26,3 C 46 % 1019,3 hPa 0,0 l/m 4,9 km/h N 13,7 C 26,3 C 17,7 km/h
19.06.2018 19:00 25,8 C 48 % 1019,7 hPa 0,0 l/m 3,2 km/h N 13,8 C 25,8 C 14,1 km/h
19.06.2018 20:00 24,5 C 51 % 1020,0 hPa 0,0 l/m 2,1 km/h N 13,5 C 24,5 C 12,1 km/h
19.06.2018 21:00 23,0 C 55 % 1020,6 hPa 0,0 l/m 0,4 km/h N 13,4 C 23,0 C 5,6 km/h
19.06.2018 22:00 21,8 C 59 % 1021,2 hPa 0,0 l/m 0,6 km/h N 13,5 C 21,8 C 6,4 km/h
19.06.2018 23:00 21,4 C 61 % 1021,2 hPa 0,0 l/m 0,9 km/h N 13,5 C 21,4 C 8,4 km/h
20.06.2018 00:00 20,9 C 63 % 1021,5 hPa 0,0 l/m 0,4 km/h N 13,4 C 20,9 C 6,0 km/h
20.06.2018 01:00 19,9 C 67 % 1021,6 hPa 0,0 l/m 0,3 km/h N 13,4 C 19,9 C 3,2 km/h
20.06.2018 02:00 19,7 C 67 % 1021,5 hPa 0,0 l/m 0,9 km/h N 13,5 C 19,7 C 4,8 km/h
20.06.2018 03:00 18,5 C 70 % 1021,4 hPa 0,0 l/m 0,0 km/h N 12,9 C 18,5 C 0,4 km/h
20.06.2018 04:00 17,0 C 76 % 1021,7 hPa 0,0 l/m 0,0 km/h N 12,7 C 17,0 C 0,0 km/h
20.06.2018 05:00 16,3 C 78 % 1021,8 hPa 0,0 l/m 0,0 km/h N 12,5 C 16,3 C 0,0 km/h
20.06.2018 06:00 17,0 C 79 % 1021,8 hPa 0,0 l/m 0,0 km/h N 13,3 C 17,0 C 1,6 km/h
20.06.2018 07:00 19,5 C 74 % 1021,8 hPa 0,0 l/m 1,4 km/h N 14,6 C 19,5 C 4,8 km/h
20.06.2018 08:00 23,0 C 63 % 1021,7 hPa 0,0 l/m 4,6 km/h N 15,5 C 23,0 C 12,9 km/h
20.06.2018 09:00 24,8 C 57 % 1021,6 hPa 0,0 l/m 2,8 km/h N 15,6 C 24,8 C 11,7 km/h
20.06.2018 10:00 25,9 C 54 % 1021,2 hPa 0,0 l/m 3,6 km/h N 15,7 C 25,9 C 10,5 km/h
20.06.2018 11:00 28,0 C 46 % 1020,9 hPa 0,0 l/m 2,2 km/h N 15,3 C 28,0 C 9,7 km/h
20.06.2018 12:00 29,1 C 46 % 1020,5 hPa 0,0 l/m 1,1 km/h N 16,4 C 29,1 C 8,1 km/h
20.06.2018 13:00 30,0 C 43 % 1019,8 hPa 0,0 l/m 0,9 km/h N 16,1 C 30,0 C 8,0 km/h
20.06.2018 14:00 31,4 C 39 % 1019,1 hPa 0,0 l/m 1,1 km/h N 15,5 C 31,4 C 6,4 km/h
20.06.2018 15:00 30,5 C 41 % 1018,5 hPa 0,0 l/m 0,8 km/h N 15,7 C 30,5 C 7,2 km/h
20.06.2018 16:00 29,5 C 41 % 1018,0 hPa 0,0 l/m 1,2 km/h N 14,9 C 29,5 C 8,4 km/h
20.06.2018 17:00 29,4 C 42 % 1017,4 hPa 0,0 l/m 0,5 km/h N 15,3 C 29,4 C 5,6 km/h
20.06.2018 18:00 30,2 C 42 % 1016,9 hPa 0,0 l/m 0,5 km/h N 15,9 C 30,2 C 7,2 km/h
20.06.2018 19:00 29,8 C 44 % 1016,4 hPa 0,0 l/m 0,5 km/h N 16,0 C 29,8 C 5,6 km/h
20.06.2018 20:00 28,6 C 46 % 1016,4 hPa 0,0 l/m 0,0 km/h N 15,8 C 28,6 C 1,6 km/h
20.06.2018 21:00 26,0 C 53 % 1016,5 hPa 0,0 l/m 0,0 km/h N 15,7 C 26,0 C 0,0 km/h
20.06.2018 22:00 22,8 C 65 % 1016,6 hPa 0,0 l/m 0,0 km/h N 15,7 C 22,8 C 0,0 km/h
20.06.2018 23:00 20,6 C 72 % 1016,4 hPa 0,0 l/m 0,0 km/h N 15,3 C 20,6 C 0,0 km/h
21.06.2018 00:00 19,5 C 75 % 1015,9 hPa 0,0 l/m 0,0 km/h N 14,9 C 19,5 C 0,0 km/h
21.06.2018 01:00 18,7 C 78 % 1015,4 hPa 0,0 l/m 0,0 km/h N 14,8 C 18,7 C 0,0 km/h
21.06.2018 02:00 18,3 C 80 % 1014,9 hPa 0,0 l/m 0,0 km/h N 14,7 C 18,3 C 0,0 km/h
21.06.2018 03:00 17,6 C 81 % 1014,7 hPa 0,0 l/m 0,0 km/h N 14,3 C 17,6 C 0,4 km/h
21.06.2018 04:00 17,2 C 81 % 1014,3 hPa 0,0 l/m 0,1 km/h N 13,9 C 17,2 C 1,6 km/h
21.06.2018 05:00 17,2 C 81 % 1014,2 hPa 0,0 l/m 0,0 km/h N 13,9 C 17,2 C 1,2 km/h
21.06.2018 06:00 17,7 C 81 % 1013,8 hPa 0,0 l/m 0,0 km/h N 14,4 C 17,7 C 0,8 km/h
21.06.2018 07:00 19,6 C 79 % 1013,6 hPa 0,0 l/m 0,0 km/h N 15,9 C 19,6 C 0,0 km/h
21.06.2018 08:00 23,6 C 68 % 1013,3 hPa 0,0 l/m 0,0 km/h N 17,3 C 23,6 C 0,8 km/h
21.06.2018 09:00 28,0 C 55 % 1012,7 hPa 0,0 l/m 0,1 km/h N 18,0 C 28,0 C 3,6 km/h
21.06.2018 10:00 30,3 C 49 % 1012,2 hPa 0,0 l/m 0,2 km/h N 18,3 C 30,3 C 4,0 km/h
21.06.2018 11:00 31,3 C 46 % 1011,7 hPa 0,0 l/m 0,9 km/h N 18,4 C 31,3 C 7,6 km/h
21.06.2018 12:00 32,8 C 44 % 1010,9 hPa 0,0 l/m 0,6 km/h N 19,0 C 32,8 C 6,4 km/h
21.06.2018 13:00 31,5 C 47 % 1010,2 hPa 0,0 l/m 0,4 km/h N 18,7 C 31,5 C 4,8 km/h
21.06.2018 14:00 32,7 C 43 % 1009,3 hPa 0,0 l/m 2,1 km/h N 18,4 C 32,7 C 11,7 km/h
21.06.2018 15:00 32,1 C 42 % 1008,7 hPa 0,0 l/m 3,8 km/h N 17,7 C 32,1 C 19,3 km/h
21.06.2018 16:00 31,5 C 37 % 1008,3 hPa 0,0 l/m 6,5 km/h N 14,9 C 31,5 C 24,9 km/h
21.06.2018 17:00 31,3 C 39 % 1007,7 hPa 0,0 l/m 2,3 km/h N 15,5 C 31,3 C 12,1 km/h
21.06.2018 18:00 32,4 C 38 % 1006,9 hPa 0,0 l/m 2,1 km/h N 16,0 C 32,4 C 13,3 km/h
21.06.2018 19:00 32,5 C 39 % 1007,0 hPa 0,0 l/m 1,4 km/h N 16,5 C 32,5 C 13,7 km/h
21.06.2018 20:00 30,5 C 43 % 1007,2 hPa 0,0 l/m 3,9 km/h N 16,3 C 30,5 C 16,9 km/h
21.06.2018 21:00 28,5 C 49 % 1007,9 hPa 0,0 l/m 5,7 km/h N 16,7 C 28,5 C 19,7 km/h
21.06.2018 22:00 23,0 C 67 % 1010,5 hPa 6,2 l/m 10,7 km/h N 16,3 C 22,0 C 27,3 km/h
21.06.2018 23:00 18,4 C 76 % 1012,4 hPa 0,0 l/m 6,3 km/h N 14,1 C 18,2 C 18,9 km/h
22.06.2018 00:00 18,3 C 68 % 1013,7 hPa 0,0 l/m 4,9 km/h N 12,2 C 18,3 C 19,3 km/h
22.06.2018 01:00 18,3 C 65 % 1014,3 hPa 0,0 l/m 4,9 km/h N 11,4 C 18,2 C 16,5 km/h
22.06.2018 02:00 17,7 C 61 % 1014,3 hPa 0,0 l/m 5,9 km/h N 10,1 C 17,6 C 20,5 km/h
22.06.2018 03:00 16,8 C 57 % 1014,9 hPa 0,3 l/m 6,8 km/h N 8,3 C 16,6 C 20,9 km/h
22.06.2018 04:00 16,1 C 54 % 1015,5 hPa 0,0 l/m 6,3 km/h N 6,8 C 16,0 C 26,1 km/h
22.06.2018 05:00 15,6 C 57 % 1016,2 hPa 0,0 l/m 3,7 km/h N 7,2 C 15,6 C 17,3 km/h
22.06.2018 06:00 15,2 C 57 % 1016,7 hPa 0,0 l/m 3,9 km/h N 6,7 C 15,2 C 16,5 km/h
22.06.2018 07:00 14,8 C 53 % 1017,0 hPa 0,0 l/m 5,8 km/h N 5,2 C 14,6 C 22,1 km/h
22.06.2018 08:00 14,4 C 54 % 1017,8 hPa 0,0 l/m 3,2 km/h N 5,1 C 14,4 C 16,5 km/h
22.06.2018 09:00 14,1 C 57 % 1018,0 hPa 0,0 l/m 0,8 km/h N 5,7 C 14,1 C 6,8 km/h
22.06.2018 10:00 14,5 C 58 % 1018,3 hPa 0,0 l/m 0,9 km/h N 6,4 C 14,5 C 8,4 km/h
22.06.2018 11:00 14,8 C 59 % 1018,5 hPa 0,0 l/m 0,7 km/h N 6,9 C 14,8 C 7,2 km/h
22.06.2018 12:00 14,4 C 63 % 1018,7 hPa 0,0 l/m 1,3 km/h N 7,5 C 14,4 C 7,6 km/h
22.06.2018 13:00 15,6 C 64 % 1017,9 hPa 0,0 l/m 3,2 km/h N 8,6 C 15,6 C 13,3 km/h
22.06.2018 14:00 18,6 C 49 % 1017,2 hPa 0,0 l/m 9,5 km/h N 7,8 C 17,4 C 25,8 km/h
22.06.2018 15:00 17,3 C 49 % 1017,6 hPa 0,0 l/m 3,5 km/h N 6,4 C 17,3 C 15,3 km/h
22.06.2018 16:00 17,3 C 50 % 1017,8 hPa 0,0 l/m 4,8 km/h N 6,6 C 17,3 C 18,5 km/h
22.06.2018 17:00 16,8 C 52 % 1018,2 hPa 0,0 l/m 4,1 km/h N 6,7 C 16,8 C 15,7 km/h
22.06.2018 18:00 14,1 C 64 % 1019,3 hPa 0,0 l/m 8,2 km/h N 7,4 C 13,0 C 23,7 km/h
22.06.2018 19:00 13,6 C 67 % 1019,2 hPa 0,0 l/m 2,2 km/h N 7,6 C 13,6 C 12,5 km/h
22.06.2018 20:00 12,0 C 77 % 1020,0 hPa 0,3 l/m 3,2 km/h N 8,0 C 12,0 C 16,5 km/h
22.06.2018 21:00 11,1 C 80 % 1020,3 hPa 0,0 l/m 2,3 km/h N 7,7 C 11,1 C 14,5 km/h
22.06.2018 22:00 11,3 C 78 % 1020,8 hPa 0,0 l/m 3,9 km/h N 7,6 C 11,3 C 16,5 km/h
22.06.2018 23:00 11,3 C 78 % 1020,8 hPa 0,0 l/m 6,2 km/h N 7,5 C 10,2 C 22,6 km/h
23.06.2018 00:00 11,7 C 75 % 1020,9 hPa 0,0 l/m 8,6 km/h N 7,4 C 10,3 C 25,4 km/h
23.06.2018 01:00 12,1 C 73 % 1020,8 hPa 0,0 l/m 10,5 km/h N 7,4 C 9,7 C 28,2 km/h
23.06.2018 02:00 12,3 C 73 % 1020,8 hPa 0,0 l/m 9,9 km/h N 7,5 C 10,2 C 25,8 km/h
23.06.2018 03:00 12,0 C 73 % 1020,7 hPa 0,0 l/m 10,3 km/h N 7,4 C 9,8 C 24,9 km/h
23.06.2018 04:00 11,8 C 74 % 1020,4 hPa 0,0 l/m 7,2 km/h N 7,4 C 11,0 C 22,1 km/h
23.06.2018 05:00 12,1 C 74 % 1020,7 hPa 0,0 l/m 9,0 km/h N 7,6 C 10,5 C 24,1 km/h
23.06.2018 06:00 12,4 C 73 % 1021,0 hPa 0,0 l/m 5,7 km/h N 7,6 C 12,2 C 20,5 km/h
23.06.2018 07:00 12,8 C 71 % 1021,3 hPa 0,0 l/m 6,6 km/h N 7,7 C 12,2 C 21,3 km/h
23.06.2018 08:00 13,4 C 70 % 1021,4 hPa 0,0 l/m 6,4 km/h N 8,1 C 13,3 C 22,9 km/h
23.06.2018 09:00 14,4 C 68 % 1021,3 hPa 0,0 l/m 5,5 km/h N 8,4 C 14,2 C 22,5 km/h
23.06.2018 10:00 15,1 C 65 % 1020,9 hPa 0,0 l/m 4,3 km/h N 8,6 C 15,1 C 18,9 km/h
23.06.2018 11:00 15,0 C 65 % 1020,7 hPa 0,0 l/m 4,1 km/h N 8,5 C 15,0 C 17,3 km/h
23.06.2018 12:00 15,7 C 62 % 1020,4 hPa 0,0 l/m 5,4 km/h N 8,5 C 15,7 C 20,1 km/h
23.06.2018 13:00 16,2 C 59 % 1019,9 hPa 0,0 l/m 4,6 km/h N 8,2 C 16,2 C 19,3 km/h
23.06.2018 14:00 17,7 C 53 % 1019,3 hPa 0,0 l/m 7,9 km/h N 7,9 C 17,0 C 25,3 km/h
23.06.2018 15:00 17,9 C 52 % 1018,8 hPa 0,0 l/m 8,3 km/h N 7,9 C 17,0 C 29,4 km/h
23.06.2018 16:00 19,1 C 49 % 1018,2 hPa 0,0 l/m 9,1 km/h N 8,2 C 18,0 C 30,2 km/h
23.06.2018 17:00 19,5 C 46 % 1017,9 hPa 0,0 l/m 9,4 km/h N 7,4 C 18,3 C 25,8 km/h
23.06.2018 18:00 19,7 C 38 % 1018,1 hPa 0,0 l/m 10,7 km/h N 5,1 C 18,1 C 30,6 km/h
23.06.2018 19:00 18,4 C 44 % 1018,3 hPa 0,0 l/m 6,7 km/h N 6,0 C 18,0 C 23,3 km/h
23.06.2018 20:00 17,5 C 48 % 1018,8 hPa 0,0 l/m 6,2 km/h N 6,4 C 17,1 C 21,7 km/h
23.06.2018 21:00 16,5 C 52 % 1019,4 hPa 0,0 l/m 4,7 km/h N 6,5 C 16,5 C 19,3 km/h
23.06.2018 22:00 15,9 C 55 % 1019,8 hPa 0,0 l/m 2,6 km/h N 7,0 C 15,9 C 13,7 km/h
23.06.2018 23:00 15,6 C 58 % 1019,8 hPa 0,0 l/m 2,4 km/h N 7,3 C 15,6 C 14,9 km/h
24.06.2018 00:00 15,1 C 61 % 1019,8 hPa 0,0 l/m 2,7 km/h N 7,6 C 15,1 C 14,5 km/h
24.06.2018 01:00 14,1 C 69 % 1019,7 hPa 0,0 l/m 2,2 km/h N 8,3 C 14,1 C 12,9 km/h
24.06.2018 02:00 13,3 C 72 % 1019,5 hPa 0,0 l/m 4,7 km/h N 8,5 C 13,1 C 16,1 km/h
24.06.2018 03:00 12,9 C 76 % 1019,2 hPa 0,0 l/m 6,0 km/h N 8,8 C 12,8 C 20,1 km/h
24.06.2018 04:00 12,5 C 79 % 1019,0 hPa 0,0 l/m 1,9 km/h N 8,9 C 12,5 C 12,9 km/h
24.06.2018 05:00 12,8 C 77 % 1018,8 hPa 0,0 l/m 3,2 km/h N 8,8 C 12,8 C 14,1 km/h
24.06.2018 06:00 13,1 C 76 % 1018,9 hPa 0,0 l/m 4,0 km/h N 8,9 C 13,0 C 17,7 km/h
24.06.2018 07:00 13,7 C 74 % 1019,2 hPa 0,0 l/m 7,1 km/h N 9,1 C 13,1 C 20,5 km/h
24.06.2018 08:00 14,2 C 74 % 1019,2 hPa 0,0 l/m 8,1 km/h N 9,6 C 13,1 C 22,9 km/h
24.06.2018 09:00 15,0 C 71 % 1019,2 hPa 0,0 l/m 7,7 km/h N 9,8 C 14,2 C 21,7 km/h
24.06.2018 10:00 15,9 C 67 % 1019,0 hPa 0,0 l/m 8,2 km/h N 9,8 C 14,8 C 24,9 km/h
24.06.2018 11:00 16,5 C 66 % 1018,9 hPa 0,0 l/m 10,7 km/h N 10,1 C 14,5 C 27,8 km/h
24.06.2018 12:00 17,2 C 64 % 1018,7 hPa 0,0 l/m 6,6 km/h N 10,2 C 16,9 C 21,7 km/h
24.06.2018 13:00 17,1 C 65 % 1018,4 hPa 0,0 l/m 5,3 km/h N 10,4 C 17,1 C 18,5 km/h
24.06.2018 14:00 18,0 C 61 % 1017,8 hPa 0,0 l/m 6,4 km/h N 10,2 C 17,6 C 22,1 km/h
24.06.2018 15:00 18,9 C 55 % 1017,4 hPa 0,0 l/m 6,2 km/h N 9,7 C 18,7 C 21,3 km/h
24.06.2018 16:00 18,8 C 55 % 1017,3 hPa 0,0 l/m 4,4 km/h N 9,5 C 18,8 C 14,5 km/h
24.06.2018 17:00 19,7 C 53 % 1016,8 hPa 0,0 l/m 5,6 km/h N 9,8 C 19,6 C 18,5 km/h
24.06.2018 18:00 19,2 C 51 % 1016,7 hPa 0,0 l/m 5,4 km/h N 8,8 C 19,0 C 17,3 km/h
24.06.2018 19:00 18,6 C 55 % 1016,6 hPa 0,0 l/m 2,4 km/h N 9,3 C 18,6 C 11,7 km/h
24.06.2018 20:00 18,1 C 58 % 1016,5 hPa 0,0 l/m 0,2 km/h N 9,6 C 18,1 C 4,8 km/h
24.06.2018 21:00 17,7 C 61 % 1016,8 hPa 0,0 l/m 0,2 km/h N 9,9 C 17,7 C 2,4 km/h
24.06.2018 22:00 17,3 C 62 % 1017,2 hPa 0,0 l/m 0,7 km/h N 9,9 C 17,3 C 6,0 km/h
24.06.2018 23:00 17,0 C 63 % 1017,5 hPa 0,0 l/m 1,4 km/h N 9,8 C 17,0 C 7,6 km/h
Min-Datum _ 22.06.18 21.06.18 21.06.18 - 20.06.18 - 22.06.18 23.06.18 20.06.18
_ Min-Zeit 21:30 16:45 18:30 - 02:45 - 08:00 01:00 03:00
Minimum _ 10,9 C 35 % 1006,7 hPa - 0,0 km/h - 4,8 C 8,8 C 0,0 km/h
Max-Datum _ 21.06.18 21.06.18 20.06.18 21.06.18 18.06.18 - 21.06.18 21.06.18 18.06.18
_ Max-Zeit 14:00 03:15 05:15 22:30 08:15 - 13:45 12:30 11:30
Maximum _ 33,7 C 81 % 1021,8 hPa 6,2 l/m 15,0 km/h
N
- 19,6 C 33,4 C 43,5 km/h
N
Durchschnitt _ 20,4 C 59 % 1017,6 hPa #6,8 l/m 4,7 km/h N 11,8 C 20,0 C 16,1 km/h